sensor_id;sensor_type;location;lat;lon;timestamp;temperature;humidity
14277;DHT22;7222;57.346;12.150;2022-08-19T00:01:55;18.50;99.90
14277;DHT22;7222;57.346;12.150;2022-08-19T00:04:25;18.40;99.90
14277;DHT22;7222;57.346;12.150;2022-08-19T00:06:53;18.40;99.90
14277;DHT22;7222;57.346;12.150;2022-08-19T00:09:24;18.50;99.90
14277;DHT22;7222;57.346;12.150;2022-08-19T00:11:51;18.40;99.90
14277;DHT22;7222;57.346;12.150;2022-08-19T00:14:19;18.40;99.90
14277;DHT22;7222;57.346;12.150;2022-08-19T00:16:47;18.30;99.90
14277;DHT22;7222;57.346;12.150;2022-08-19T00:19:16;18.40;99.90
14277;DHT22;7222;57.346;12.150;2022-08-19T00:21:44;18.50;99.90
14277;DHT22;7222;57.346;12.150;2022-08-19T00:24:13;18.50;99.90
14277;DHT22;7222;57.346;12.150;2022-08-19T00:26:42;18.30;99.90
14277;DHT22;7222;57.346;12.150;2022-08-19T00:29:12;18.40;99.90
14277;DHT22;7222;57.346;12.150;2022-08-19T00:31:40;18.40;99.90
14277;DHT22;7222;57.346;12.150;2022-08-19T00:34:08;18.40;99.90
14277;DHT22;7222;57.346;12.150;2022-08-19T00:36:37;18.40;99.90
14277;DHT22;7222;57.346;12.150;2022-08-19T00:39:05;18.30;99.90
14277;DHT22;7222;57.346;12.150;2022-08-19T00:41:32;18.40;99.90
14277;DHT22;7222;57.346;12.150;2022-08-19T00:44:03;18.60;99.90
14277;DHT22;7222;57.346;12.150;2022-08-19T00:46:32;18.70;99.90
14277;DHT22;7222;57.346;12.150;2022-08-19T00:49:05;18.20;99.90
14277;DHT22;7222;57.346;12.150;2022-08-19T00:51:33;18.10;99.90
14277;DHT22;7222;57.346;12.150;2022-08-19T00:54:02;18.10;99.90
14277;DHT22;7222;57.346;12.150;2022-08-19T00:56:29;18.10;99.90
14277;DHT22;7222;57.346;12.150;2022-08-19T00:58:58;18.10;99.90
14277;DHT22;7222;57.346;12.150;2022-08-19T01:01:28;18.10;99.90
14277;DHT22;7222;57.346;12.150;2022-08-19T01:03:55;18.10;99.90
14277;DHT22;7222;57.346;12.150;2022-08-19T01:06:22;18.10;99.90
14277;DHT22;7222;57.346;12.150;2022-08-19T01:08:49;18.20;99.90
14277;DHT22;7222;57.346;12.150;2022-08-19T01:11:17;18.10;99.90
14277;DHT22;7222;57.346;12.150;2022-08-19T01:13:45;18.10;99.90
14277;DHT22;7222;57.346;12.150;2022-08-19T01:16:12;18.10;99.90
14277;DHT22;7222;57.346;12.150;2022-08-19T01:18:43;18.00;99.90
14277;DHT22;7222;57.346;12.150;2022-08-19T01:21:14;18.10;99.90
14277;DHT22;7222;57.346;12.150;2022-08-19T01:23:44;18.00;99.90
14277;DHT22;7222;57.346;12.150;2022-08-19T01:26:14;18.00;99.90
14277;DHT22;7222;57.346;12.150;2022-08-19T01:28:43;18.00;99.90
14277;DHT22;7222;57.346;12.150;2022-08-19T01:31:13;18.00;99.90
14277;DHT22;7222;57.346;12.150;2022-08-19T01:33:41;18.00;99.90
14277;DHT22;7222;57.346;12.150;2022-08-19T01:36:11;17.90;99.90
14277;DHT22;7222;57.346;12.150;2022-08-19T01:38:41;17.90;99.90
14277;DHT22;7222;57.346;12.150;2022-08-19T01:41:11;17.90;99.90
14277;DHT22;7222;57.346;12.150;2022-08-19T01:46:15;17.90;99.90
14277;DHT22;7222;57.346;12.150;2022-08-19T01:48:46;17.80;99.90
14277;DHT22;7222;57.346;12.150;2022-08-19T01:51:22;17.80;99.90
14277;DHT22;7222;57.346;12.150;2022-08-19T01:53:50;17.70;99.90
14277;DHT22;7222;57.346;12.150;2022-08-19T01:56:19;17.80;99.90
14277;DHT22;7222;57.346;12.150;2022-08-19T01:58:50;17.80;99.90
14277;DHT22;7222;57.346;12.150;2022-08-19T02:01:21;17.60;99.90
14277;DHT22;7222;57.346;12.150;2022-08-19T02:03:48;17.60;99.90
14277;DHT22;7222;57.346;12.150;2022-08-19T02:06:19;17.50;99.90
14277;DHT22;7222;57.346;12.150;2022-08-19T02:08:46;17.50;99.90
14277;DHT22;7222;57.346;12.150;2022-08-19T02:11:21;17.50;99.90
14277;DHT22;7222;57.346;12.150;2022-08-19T02:13:50;17.50;99.90
14277;DHT22;7222;57.346;12.150;2022-08-19T02:16:19;17.50;99.90
14277;DHT22;7222;57.346;12.150;2022-08-19T02:18:46;17.50;99.90
14277;DHT22;7222;57.346;12.150;2022-08-19T02:21:15;17.50;99.90
14277;DHT22;7222;57.346;12.150;2022-08-19T02:23:42;17.70;99.90
14277;DHT22;7222;57.346;12.150;2022-08-19T02:26:10;17.50;99.90
14277;DHT22;7222;57.346;12.150;2022-08-19T02:28:39;17.20;99.90
14277;DHT22;7222;57.346;12.150;2022-08-19T02:31:09;17.10;99.90
14277;DHT22;7222;57.346;12.150;2022-08-19T02:33:37;17.20;99.90
14277;DHT22;7222;57.346;12.150;2022-08-19T02:36:05;17.20;99.90
14277;DHT22;7222;57.346;12.150;2022-08-19T02:38:33;17.20;99.90
14277;DHT22;7222;57.346;12.150;2022-08-19T02:41:03;17.20;99.90
14277;DHT22;7222;57.346;12.150;2022-08-19T02:43:31;17.20;99.90
14277;DHT22;7222;57.346;12.150;2022-08-19T02:46:11;17.20;99.90
14277;DHT22;7222;57.346;12.150;2022-08-19T02:48:39;17.20;99.90
14277;DHT22;7222;57.346;12.150;2022-08-19T02:51:06;17.10;99.90
14277;DHT22;7222;57.346;12.150;2022-08-19T02:53:33;17.20;99.90
14277;DHT22;7222;57.346;12.150;2022-08-19T02:56:00;17.10;99.90
14277;DHT22;7222;57.346;12.150;2022-08-19T02:58:27;17.00;99.90
14277;DHT22;7222;57.346;12.150;2022-08-19T03:00:56;17.00;99.90
14277;DHT22;7222;57.346;12.150;2022-08-19T03:03:25;17.20;99.90
14277;DHT22;7222;57.346;12.150;2022-08-19T03:06:01;17.10;99.90
14277;DHT22;7222;57.346;12.150;2022-08-19T03:08:29;17.10;99.90
14277;DHT22;7222;57.346;12.150;2022-08-19T03:10:56;17.10;99.90
14277;DHT22;7222;57.346;12.150;2022-08-19T03:13:23;17.20;99.90
14277;DHT22;7222;57.346;12.150;2022-08-19T03:15:50;17.20;99.90
14277;DHT22;7222;57.346;12.150;2022-08-19T03:18:17;17.20;99.90
14277;DHT22;7222;57.346;12.150;2022-08-19T03:20:49;17.10;99.90
14277;DHT22;7222;57.346;12.150;2022-08-19T03:23:18;17.10;99.90
14277;DHT22;7222;57.346;12.150;2022-08-19T03:25:47;17.20;99.90
14277;DHT22;7222;57.346;12.150;2022-08-19T03:28:15;17.20;99.90
14277;DHT22;7222;57.346;12.150;2022-08-19T03:30:53;17.40;99.90
14277;DHT22;7222;57.346;12.150;2022-08-19T03:33:22;17.20;99.90
14277;DHT22;7222;57.346;12.150;2022-08-19T03:36:01;17.20;99.90
14277;DHT22;7222;57.346;12.150;2022-08-19T03:38:29;17.30;99.90
14277;DHT22;7222;57.346;12.150;2022-08-19T03:40:57;17.30;99.90
14277;DHT22;7222;57.346;12.150;2022-08-19T03:43:25;17.20;99.90
14277;DHT22;7222;57.346;12.150;2022-08-19T03:46:00;17.20;99.90
14277;DHT22;7222;57.346;12.150;2022-08-19T03:48:28;17.20;99.90
14277;DHT22;7222;57.346;12.150;2022-08-19T03:50:56;17.40;99.90
14277;DHT22;7222;57.346;12.150;2022-08-19T03:53:26;17.30;99.90
14277;DHT22;7222;57.346;12.150;2022-08-19T03:55:54;17.30;99.90
14277;DHT22;7222;57.346;12.150;2022-08-19T03:58:21;17.30;99.90
14277;DHT22;7222;57.346;12.150;2022-08-19T04:00:48;17.50;99.90
14277;DHT22;7222;57.346;12.150;2022-08-19T04:03:16;17.50;99.90
14277;DHT22;7222;57.346;12.150;2022-08-19T04:05:44;17.50;99.90
14277;DHT22;7222;57.346;12.150;2022-08-19T04:08:12;17.40;99.90
14277;DHT22;7222;57.346;12.150;2022-08-19T04:10:48;17.30;99.90
14277;DHT22;7222;57.346;12.150;2022-08-19T04:13:16;17.30;99.90
14277;DHT22;7222;57.346;12.150;2022-08-19T04:15:45;17.40;99.90
14277;DHT22;7222;57.346;12.150;2022-08-19T04:18:13;17.50;99.90
14277;DHT22;7222;57.346;12.150;2022-08-19T04:20:42;17.40;99.90
14277;DHT22;7222;57.346;12.150;2022-08-19T04:23:09;17.50;99.90
14277;DHT22;7222;57.346;12.150;2022-08-19T04:25:38;17.40;99.90
14277;DHT22;7222;57.346;12.150;2022-08-19T04:28:07;17.40;99.90
14277;DHT22;7222;57.346;12.150;2022-08-19T04:30:40;17.60;99.90
14277;DHT22;7222;57.346;12.150;2022-08-19T04:33:07;17.70;99.90
14277;DHT22;7222;57.346;12.150;2022-08-19T04:35:36;17.70;99.90
14277;DHT22;7222;57.346;12.150;2022-08-19T04:38:04;17.50;99.90
14277;DHT22;7222;57.346;12.150;2022-08-19T04:40:32;17.70;99.90
14277;DHT22;7222;57.346;12.150;2022-08-19T04:43:23;17.70;99.90
14277;DHT22;7222;57.346;12.150;2022-08-19T04:45:50;17.80;99.90
14277;DHT22;7222;57.346;12.150;2022-08-19T04:48:18;17.70;99.90
14277;DHT22;7222;57.346;12.150;2022-08-19T04:50:52;17.70;99.90
14277;DHT22;7222;57.346;12.150;2022-08-19T04:53:23;18.00;99.90
14277;DHT22;7222;57.346;12.150;2022-08-19T04:55:55;17.80;99.90
14277;DHT22;7222;57.346;12.150;2022-08-19T04:58:25;17.90;99.90
14277;DHT22;7222;57.346;12.150;2022-08-19T05:00:53;18.20;99.90
14277;DHT22;7222;57.346;12.150;2022-08-19T05:03:21;18.00;99.90
14277;DHT22;7222;57.346;12.150;2022-08-19T05:05:48;17.80;99.90
14277;DHT22;7222;57.346;12.150;2022-08-19T05:08:18;17.90;99.90
14277;DHT22;7222;57.346;12.150;2022-08-19T05:10:47;18.10;99.90
14277;DHT22;7222;57.346;12.150;2022-08-19T05:13:15;17.90;99.90
14277;DHT22;7222;57.346;12.150;2022-08-19T05:15:44;18.30;99.90
14277;DHT22;7222;57.346;12.150;2022-08-19T05:18:19;18.00;99.90
14277;DHT22;7222;57.346;12.150;2022-08-19T05:21:06;18.10;99.90
14277;DHT22;7222;57.346;12.150;2022-08-19T05:23:51;18.00;99.90
14277;DHT22;7222;57.346;12.150;2022-08-19T05:26:18;18.20;99.90
14277;DHT22;7222;57.346;12.150;2022-08-19T05:28:45;18.40;99.90
14277;DHT22;7222;57.346;12.150;2022-08-19T05:31:14;18.40;99.90
14277;DHT22;7222;57.346;12.150;2022-08-19T05:33:41;18.30;99.90
14277;DHT22;7222;57.346;12.150;2022-08-19T05:36:08;18.50;99.90
14277;DHT22;7222;57.346;12.150;2022-08-19T05:38:36;18.20;99.90
14277;DHT22;7222;57.346;12.150;2022-08-19T05:41:07;18.30;99.90
14277;DHT22;7222;57.346;12.150;2022-08-19T05:43:34;18.30;99.90
14277;DHT22;7222;57.346;12.150;2022-08-19T05:46:02;18.30;99.90
14277;DHT22;7222;57.346;12.150;2022-08-19T05:48:31;18.40;99.90
14277;DHT22;7222;57.346;12.150;2022-08-19T05:51:04;18.40;99.90
14277;DHT22;7222;57.346;12.150;2022-08-19T05:53:32;18.50;99.90
14277;DHT22;7222;57.346;12.150;2022-08-19T05:56:03;18.50;99.90
14277;DHT22;7222;57.346;12.150;2022-08-19T05:58:30;18.60;99.90
14277;DHT22;7222;57.346;12.150;2022-08-19T06:00:58;18.60;99.90
14277;DHT22;7222;57.346;12.150;2022-08-19T06:03:32;18.50;99.90
14277;DHT22;7222;57.346;12.150;2022-08-19T06:06:01;18.60;99.90
14277;DHT22;7222;57.346;12.150;2022-08-19T06:08:29;18.90;99.90
14277;DHT22;7222;57.346;12.150;2022-08-19T06:10:56;18.90;99.90
14277;DHT22;7222;57.346;12.150;2022-08-19T06:13:23;18.90;99.90
14277;DHT22;7222;57.346;12.150;2022-08-19T06:15:51;18.90;99.90
14277;DHT22;7222;57.346;12.150;2022-08-19T06:18:18;18.90;99.90
14277;DHT22;7222;57.346;12.150;2022-08-19T06:20:50;18.90;99.90
14277;DHT22;7222;57.346;12.150;2022-08-19T06:23:17;19.20;99.90
14277;DHT22;7222;57.346;12.150;2022-08-19T06:25:45;19.30;99.90
14277;DHT22;7222;57.346;12.150;2022-08-19T06:28:13;19.40;99.90
14277;DHT22;7222;57.346;12.150;2022-08-19T06:30:40;19.40;99.90
14277;DHT22;7222;57.346;12.150;2022-08-19T06:33:07;19.60;99.90
14277;DHT22;7222;57.346;12.150;2022-08-19T06:35:38;19.30;99.90
14277;DHT22;7222;57.346;12.150;2022-08-19T06:38:07;19.30;99.90
14277;DHT22;7222;57.346;12.150;2022-08-19T06:40:34;19.30;99.90
14277;DHT22;7222;57.346;12.150;2022-08-19T06:43:03;19.30;99.90
14277;DHT22;7222;57.346;12.150;2022-08-19T06:45:30;19.40;99.90
14277;DHT22;7222;57.346;12.150;2022-08-19T06:47:58;19.50;99.90
14277;DHT22;7222;57.346;12.150;2022-08-19T06:50:25;19.50;99.90
14277;DHT22;7222;57.346;12.150;2022-08-19T06:52:52;19.60;99.90
14277;DHT22;7222;57.346;12.150;2022-08-19T06:55:21;19.60;99.90
14277;DHT22;7222;57.346;12.150;2022-08-19T06:57:48;19.90;99.90
14277;DHT22;7222;57.346;12.150;2022-08-19T07:00:16;19.80;99.90
14277;DHT22;7222;57.346;12.150;2022-08-19T07:02:44;19.80;99.90
14277;DHT22;7222;57.346;12.150;2022-08-19T07:05:11;19.70;99.90
14277;DHT22;7222;57.346;12.150;2022-08-19T07:07:38;19.80;99.90
14277;DHT22;7222;57.346;12.150;2022-08-19T07:10:09;20.20;99.90
14277;DHT22;7222;57.346;12.150;2022-08-19T07:12:37;20.00;99.90
14277;DHT22;7222;57.346;12.150;2022-08-19T07:15:07;20.40;99.90
14277;DHT22;7222;57.346;12.150;2022-08-19T07:17:35;20.30;99.90
14277;DHT22;7222;57.346;12.150;2022-08-19T07:20:06;20.60;99.90
14277;DHT22;7222;57.346;12.150;2022-08-19T07:22:33;20.60;99.90
14277;DHT22;7222;57.346;12.150;2022-08-19T07:25:00;20.60;99.90
14277;DHT22;7222;57.346;12.150;2022-08-19T07:27:29;20.80;99.90
14277;DHT22;7222;57.346;12.150;2022-08-19T07:29:58;20.90;99.90
14277;DHT22;7222;57.346;12.150;2022-08-19T07:32:25;21.40;99.90
14277;DHT22;7222;57.346;12.150;2022-08-19T07:34:52;21.40;99.90
14277;DHT22;7222;57.346;12.150;2022-08-19T07:37:19;21.60;99.90
14277;DHT22;7222;57.346;12.150;2022-08-19T07:39:47;21.50;99.90
14277;DHT22;7222;57.346;12.150;2022-08-19T07:42:14;21.70;99.90
14277;DHT22;7222;57.346;12.150;2022-08-19T07:44:42;21.50;99.90
14277;DHT22;7222;57.346;12.150;2022-08-19T07:47:11;21.40;99.90
14277;DHT22;7222;57.346;12.150;2022-08-19T07:49:40;21.10;99.90
14277;DHT22;7222;57.346;12.150;2022-08-19T07:52:09;21.30;99.90
14277;DHT22;7222;57.346;12.150;2022-08-19T07:54:38;21.60;99.90
14277;DHT22;7222;57.346;12.150;2022-08-19T07:57:06;22.00;99.90
14277;DHT22;7222;57.346;12.150;2022-08-19T07:59:34;22.00;99.90
14277;DHT22;7222;57.346;12.150;2022-08-19T08:02:01;22.30;99.90
14277;DHT22;7222;57.346;12.150;2022-08-19T08:04:30;22.80;99.90
14277;DHT22;7222;57.346;12.150;2022-08-19T08:07:14;22.80;99.90
14277;DHT22;7222;57.346;12.150;2022-08-19T08:10:02;23.10;99.90
14277;DHT22;7222;57.346;12.150;2022-08-19T08:12:33;23.30;99.90
14277;DHT22;7222;57.346;12.150;2022-08-19T08:15:04;23.60;99.90
14277;DHT22;7222;57.346;12.150;2022-08-19T08:17:32;23.60;99.90
14277;DHT22;7222;57.346;12.150;2022-08-19T08:20:00;23.70;99.90
14277;DHT22;7222;57.346;12.150;2022-08-19T08:22:28;23.20;99.90
14277;DHT22;7222;57.346;12.150;2022-08-19T08:25:15;22.90;99.90
14277;DHT22;7222;57.346;12.150;2022-08-19T08:27:44;23.30;99.90
14277;DHT22;7222;57.346;12.150;2022-08-19T08:30:18;23.60;99.90
14277;DHT22;7222;57.346;12.150;2022-08-19T08:32:46;23.80;99.90
14277;DHT22;7222;57.346;12.150;2022-08-19T08:35:17;23.80;99.90
14277;DHT22;7222;57.346;12.150;2022-08-19T08:37:46;24.20;99.90
14277;DHT22;7222;57.346;12.150;2022-08-19T08:40:31;24.30;99.90
14277;DHT22;7222;57.346;12.150;2022-08-19T08:43:07;24.20;99.90
14277;DHT22;7222;57.346;12.150;2022-08-19T08:45:38;24.30;99.90
14277;DHT22;7222;57.346;12.150;2022-08-19T08:48:16;24.30;99.90
14277;DHT22;7222;57.346;12.150;2022-08-19T08:50:46;24.30;99.90
14277;DHT22;7222;57.346;12.150;2022-08-19T08:53:17;24.40;99.90
14277;DHT22;7222;57.346;12.150;2022-08-19T08:55:46;24.50;99.90
14277;DHT22;7222;57.346;12.150;2022-08-19T08:58:16;24.60;99.90
14277;DHT22;7222;57.346;12.150;2022-08-19T09:00:46;24.90;99.90
14277;DHT22;7222;57.346;12.150;2022-08-19T09:03:19;25.20;99.90
14277;DHT22;7222;57.346;12.150;2022-08-19T09:05:57;24.80;99.90
14277;DHT22;7222;57.346;12.150;2022-08-19T09:08:33;24.90;99.90
14277;DHT22;7222;57.346;12.150;2022-08-19T09:11:07;24.80;99.90
14277;DHT22;7222;57.346;12.150;2022-08-19T09:13:41;25.30;99.90
14277;DHT22;7222;57.346;12.150;2022-08-19T09:16:12;24.60;99.90
14277;DHT22;7222;57.346;12.150;2022-08-19T09:18:41;24.90;99.90
14277;DHT22;7222;57.346;12.150;2022-08-19T09:21:10;24.70;99.90
14277;DHT22;7222;57.346;12.150;2022-08-19T09:23:37;24.70;99.90
14277;DHT22;7222;57.346;12.150;2022-08-19T09:26:07;24.70;99.90
14277;DHT22;7222;57.346;12.150;2022-08-19T09:28:35;24.80;99.90
14277;DHT22;7222;57.346;12.150;2022-08-19T09:31:03;25.90;99.90
14277;DHT22;7222;57.346;12.150;2022-08-19T09:33:30;26.30;99.90
14277;DHT22;7222;57.346;12.150;2022-08-19T09:36:05;26.60;99.90
14277;DHT22;7222;57.346;12.150;2022-08-19T09:38:35;26.80;99.90
14277;DHT22;7222;57.346;12.150;2022-08-19T09:41:04;26.70;99.90
14277;DHT22;7222;57.346;12.150;2022-08-19T09:43:32;26.40;99.90
14277;DHT22;7222;57.346;12.150;2022-08-19T09:45:59;26.90;99.90
14277;DHT22;7222;57.346;12.150;2022-08-19T09:48:26;25.80;99.90
14277;DHT22;7222;57.346;12.150;2022-08-19T09:50:53;26.80;99.90
14277;DHT22;7222;57.346;12.150;2022-08-19T09:53:20;27.20;99.90
14277;DHT22;7222;57.346;12.150;2022-08-19T09:55:49;27.60;99.90
14277;DHT22;7222;57.346;12.150;2022-08-19T09:58:16;28.00;99.90
14277;DHT22;7222;57.346;12.150;2022-08-19T10:00:43;28.40;99.90
14277;DHT22;7222;57.346;12.150;2022-08-19T10:03:11;26.20;99.90
14277;DHT22;7222;57.346;12.150;2022-08-19T10:05:38;26.00;99.90
14277;DHT22;7222;57.346;12.150;2022-08-19T10:08:20;26.50;99.90
14277;DHT22;7222;57.346;12.150;2022-08-19T10:10:49;26.80;99.90
14277;DHT22;7222;57.346;12.150;2022-08-19T10:13:19;27.30;99.90
14277;DHT22;7222;57.346;12.150;2022-08-19T10:15:48;26.70;99.90
14277;DHT22;7222;57.346;12.150;2022-08-19T10:18:17;27.70;99.90
14277;DHT22;7222;57.346;12.150;2022-08-19T10:20:44;27.30;99.90
14277;DHT22;7222;57.346;12.150;2022-08-19T10:23:11;28.60;99.90
14277;DHT22;7222;57.346;12.150;2022-08-19T10:25:38;27.80;99.90
14277;DHT22;7222;57.346;12.150;2022-08-19T10:28:07;28.80;99.90
14277;DHT22;7222;57.346;12.150;2022-08-19T10:30:35;28.90;99.90
14277;DHT22;7222;57.346;12.150;2022-08-19T10:33:02;28.60;99.90
14277;DHT22;7222;57.346;12.150;2022-08-19T10:35:29;27.30;99.90
14277;DHT22;7222;57.346;12.150;2022-08-19T10:37:56;28.00;99.90
14277;DHT22;7222;57.346;12.150;2022-08-19T10:40:25;27.90;99.90
14277;DHT22;7222;57.346;12.150;2022-08-19T10:42:52;27.50;99.90
14277;DHT22;7222;57.346;12.150;2022-08-19T10:45:21;27.60;99.90
14277;DHT22;7222;57.346;12.150;2022-08-19T10:47:51;28.10;99.90
14277;DHT22;7222;57.346;12.150;2022-08-19T10:50:19;28.20;99.90
14277;DHT22;7222;57.346;12.150;2022-08-19T10:53:05;29.50;99.90
14277;DHT22;7222;57.346;12.150;2022-08-19T10:55:34;29.20;99.90
14277;DHT22;7222;57.346;12.150;2022-08-19T10:58:19;28.70;99.90
14277;DHT22;7222;57.346;12.150;2022-08-19T11:00:54;28.80;99.90
14277;DHT22;7222;57.346;12.150;2022-08-19T11:03:22;28.90;99.90
14277;DHT22;7222;57.346;12.150;2022-08-19T11:05:57;29.70;99.90
14277;DHT22;7222;57.346;12.150;2022-08-19T11:08:24;30.00;99.90
14277;DHT22;7222;57.346;12.150;2022-08-19T11:10:53;28.90;99.90
14277;DHT22;7222;57.346;12.150;2022-08-19T11:13:26;28.80;99.90
14277;DHT22;7222;57.346;12.150;2022-08-19T11:15:59;28.40;99.90
14277;DHT22;7222;57.346;12.150;2022-08-19T11:18:26;30.00;99.90
14277;DHT22;7222;57.346;12.150;2022-08-19T11:20:53;30.30;99.90
14277;DHT22;7222;57.346;12.150;2022-08-19T11:23:20;30.60;99.90
14277;DHT22;7222;57.346;12.150;2022-08-19T11:25:47;28.70;99.90
14277;DHT22;7222;57.346;12.150;2022-08-19T11:28:15;27.70;99.90
14277;DHT22;7222;57.346;12.150;2022-08-19T11:30:42;28.70;99.90
14277;DHT22;7222;57.346;12.150;2022-08-19T11:33:11;29.60;99.90
14277;DHT22;7222;57.346;12.150;2022-08-19T11:35:39;29.60;99.90
14277;DHT22;7222;57.346;12.150;2022-08-19T11:38:06;29.90;99.90
14277;DHT22;7222;57.346;12.150;2022-08-19T11:40:33;30.10;99.90
14277;DHT22;7222;57.346;12.150;2022-08-19T11:43:00;31.00;99.90
14277;DHT22;7222;57.346;12.150;2022-08-19T11:45:28;31.20;99.90
14277;DHT22;7222;57.346;12.150;2022-08-19T11:47:55;31.50;99.90
14277;DHT22;7222;57.346;12.150;2022-08-19T11:50:24;31.70;99.90
14277;DHT22;7222;57.346;12.150;2022-08-19T11:52:54;31.80;99.90
14277;DHT22;7222;57.346;12.150;2022-08-19T11:55:21;32.00;99.90
14277;DHT22;7222;57.346;12.150;2022-08-19T11:57:48;30.50;99.90
14277;DHT22;7222;57.346;12.150;2022-08-19T12:00:15;31.00;99.90
14277;DHT22;7222;57.346;12.150;2022-08-19T12:02:42;30.90;99.90
14277;DHT22;7222;57.346;12.150;2022-08-19T12:05:09;30.90;99.90
14277;DHT22;7222;57.346;12.150;2022-08-19T12:07:38;29.80;99.90
14277;DHT22;7222;57.346;12.150;2022-08-19T12:10:07;29.40;99.90
14277;DHT22;7222;57.346;12.150;2022-08-19T12:12:34;29.20;99.90
14277;DHT22;7222;57.346;12.150;2022-08-19T12:15:03;30.10;99.90
14277;DHT22;7222;57.346;12.150;2022-08-19T12:17:31;29.80;99.90
14277;DHT22;7222;57.346;12.150;2022-08-19T12:19:58;30.00;99.90
14277;DHT22;7222;57.346;12.150;2022-08-19T12:22:24;28.90;99.90
14277;DHT22;7222;57.346;12.150;2022-08-19T12:24:53;29.60;99.90
14277;DHT22;7222;57.346;12.150;2022-08-19T12:27:20;29.60;99.90
14277;DHT22;7222;57.346;12.150;2022-08-19T12:29:47;30.00;99.90
14277;DHT22;7222;57.346;12.150;2022-08-19T12:32:15;29.80;99.90
14277;DHT22;7222;57.346;12.150;2022-08-19T12:34:42;28.80;99.90
14277;DHT22;7222;57.346;12.150;2022-08-19T12:37:10;27.80;99.90
14277;DHT22;7222;57.346;12.150;2022-08-19T12:39:39;28.20;99.90
14277;DHT22;7222;57.346;12.150;2022-08-19T12:42:08;29.40;99.90
14277;DHT22;7222;57.346;12.150;2022-08-19T12:44:36;29.80;99.90
14277;DHT22;7222;57.346;12.150;2022-08-19T12:47:05;30.00;99.90
14277;DHT22;7222;57.346;12.150;2022-08-19T12:49:33;29.90;99.90
14277;DHT22;7222;57.346;12.150;2022-08-19T12:52:03;29.60;99.90
14277;DHT22;7222;57.346;12.150;2022-08-19T12:54:30;29.80;99.90
14277;DHT22;7222;57.346;12.150;2022-08-19T12:56:57;29.90;99.90
14277;DHT22;7222;57.346;12.150;2022-08-19T12:59:26;29.40;99.90
14277;DHT22;7222;57.346;12.150;2022-08-19T13:01:53;29.80;99.90
14277;DHT22;7222;57.346;12.150;2022-08-19T13:04:20;30.10;99.90
14277;DHT22;7222;57.346;12.150;2022-08-19T13:06:47;30.20;99.90
14277;DHT22;7222;57.346;12.150;2022-08-19T13:09:14;29.80;99.90
14277;DHT22;7222;57.346;12.150;2022-08-19T13:11:41;29.90;99.90
14277;DHT22;7222;57.346;12.150;2022-08-19T13:14:09;29.00;99.90
14277;DHT22;7222;57.346;12.150;2022-08-19T13:16:38;29.90;99.90
14277;DHT22;7222;57.346;12.150;2022-08-19T13:19:05;30.30;99.90
14277;DHT22;7222;57.346;12.150;2022-08-19T13:21:33;30.30;99.90
14277;DHT22;7222;57.346;12.150;2022-08-19T13:24:00;30.20;99.90
14277;DHT22;7222;57.346;12.150;2022-08-19T13:26:27;30.40;99.90
14277;DHT22;7222;57.346;12.150;2022-08-19T13:28:54;29.70;99.90
14277;DHT22;7222;57.346;12.150;2022-08-19T13:31:40;28.00;99.90
14277;DHT22;7222;57.346;12.150;2022-08-19T13:34:28;29.50;99.90
14277;DHT22;7222;57.346;12.150;2022-08-19T13:36:56;29.80;99.90
14277;DHT22;7222;57.346;12.150;2022-08-19T13:39:23;30.50;99.90
14277;DHT22;7222;57.346;12.150;2022-08-19T13:41:50;30.50;99.90
14277;DHT22;7222;57.346;12.150;2022-08-19T13:44:18;30.40;99.90
14277;DHT22;7222;57.346;12.150;2022-08-19T13:46:47;30.30;99.90
14277;DHT22;7222;57.346;12.150;2022-08-19T13:49:17;29.60;99.90
14277;DHT22;7222;57.346;12.150;2022-08-19T13:51:44;29.00;99.90
14277;DHT22;7222;57.346;12.150;2022-08-19T13:54:12;29.90;99.90
14277;DHT22;7222;57.346;12.150;2022-08-19T13:56:40;30.20;99.90
14277;DHT22;7222;57.346;12.150;2022-08-19T13:59:07;28.50;99.90
14277;DHT22;7222;57.346;12.150;2022-08-19T14:01:34;28.90;99.90
14277;DHT22;7222;57.346;12.150;2022-08-19T14:04:03;28.50;99.90
14277;DHT22;7222;57.346;12.150;2022-08-19T14:06:31;30.00;99.90
14277;DHT22;7222;57.346;12.150;2022-08-19T14:08:58;30.20;99.90
14277;DHT22;7222;57.346;12.150;2022-08-19T14:11:25;30.40;99.90
14277;DHT22;7222;57.346;12.150;2022-08-19T14:13:52;29.90;99.90
14277;DHT22;7222;57.346;12.150;2022-08-19T14:16:19;29.80;99.90
14277;DHT22;7222;57.346;12.150;2022-08-19T14:18:47;30.60;99.90
14277;DHT22;7222;57.346;12.150;2022-08-19T14:21:18;30.40;99.90
14277;DHT22;7222;57.346;12.150;2022-08-19T14:23:46;30.60;99.90
14277;DHT22;7222;57.346;12.150;2022-08-19T14:26:15;31.20;99.90
14277;DHT22;7222;57.346;12.150;2022-08-19T14:28:44;30.50;99.90
14277;DHT22;7222;57.346;12.150;2022-08-19T14:31:12;30.20;99.90
14277;DHT22;7222;57.346;12.150;2022-08-19T14:33:42;30.40;99.90
14277;DHT22;7222;57.346;12.150;2022-08-19T14:36:09;30.60;99.90
14277;DHT22;7222;57.346;12.150;2022-08-19T14:38:37;30.20;99.90
14277;DHT22;7222;57.346;12.150;2022-08-19T14:41:10;29.20;99.90
14277;DHT22;7222;57.346;12.150;2022-08-19T14:43:38;30.30;99.90
14277;DHT22;7222;57.346;12.150;2022-08-19T14:46:06;29.30;99.90
14277;DHT22;7222;57.346;12.150;2022-08-19T14:48:33;30.10;99.90
14277;DHT22;7222;57.346;12.150;2022-08-19T14:51:01;30.60;99.90
14277;DHT22;7222;57.346;12.150;2022-08-19T14:53:28;29.90;99.90
14277;DHT22;7222;57.346;12.150;2022-08-19T14:55:57;29.10;99.90
14277;DHT22;7222;57.346;12.150;2022-08-19T14:58:24;28.00;99.90
14277;DHT22;7222;57.346;12.150;2022-08-19T15:00:50;27.00;99.90
14277;DHT22;7222;57.346;12.150;2022-08-19T15:03:17;27.30;99.90
14277;DHT22;7222;57.346;12.150;2022-08-19T15:05:44;28.20;99.90
14277;DHT22;7222;57.346;12.150;2022-08-19T15:08:11;29.20;99.90
14277;DHT22;7222;57.346;12.150;2022-08-19T15:10:39;28.90;99.90
14277;DHT22;7222;57.346;12.150;2022-08-19T15:13:07;27.90;99.90
14277;DHT22;7222;57.346;12.150;2022-08-19T15:15:35;27.70;99.90
14277;DHT22;7222;57.346;12.150;2022-08-19T15:18:03;28.30;99.90
14277;DHT22;7222;57.346;12.150;2022-08-19T15:20:30;28.50;99.90
14277;DHT22;7222;57.346;12.150;2022-08-19T15:22:57;26.70;99.90
14277;DHT22;7222;57.346;12.150;2022-08-19T15:25:25;27.00;99.90
14277;DHT22;7222;57.346;12.150;2022-08-19T15:27:53;27.00;99.90
14277;DHT22;7222;57.346;12.150;2022-08-19T15:30:24;27.30;99.90
14277;DHT22;7222;57.346;12.150;2022-08-19T15:32:52;28.20;99.90
14277;DHT22;7222;57.346;12.150;2022-08-19T15:35:21;27.50;99.90
14277;DHT22;7222;57.346;12.150;2022-08-19T15:37:48;27.90;99.90
14277;DHT22;7222;57.346;12.150;2022-08-19T15:40:17;28.20;99.90
14277;DHT22;7222;57.346;12.150;2022-08-19T15:42:44;28.50;99.90
14277;DHT22;7222;57.346;12.150;2022-08-19T15:45:13;27.60;99.90